Airfield :
LOGIN :

Register | Disclaimer

   EN    FR    IT 

 










Legend :    VFR   Marginal VFR   IFR   Intensive IFR   Very Intensive IFR
Visi :
Ceiling :
>= 8 km
>= 3000ft
5 to 8 km
1000 to 3000 ft
1500m to 5 km
500 to 1000 ft
800 to 1500m
200 to 500 ft
< 800m
< 200 ft
Symbols :   Thunderstorms  Fog  Heavy snow  Heavy precipitations  Wind > 20 kt
SIGMETs :     Misc.  Thunderstorms  Icing  Turbulence  Mountain Waves  Volcanic Ashes






- Airport Elevation : 425 ft
- IATA code : DTM


EDLW - Dortmund

CURRENT METAR :
  • 221950Z 23016G27KT 9999 -RA SCT011 BKN014 BKN043 09/07 Q1019

EXPIRED METARs :
  • 221920Z 23015KT 7000 -RA BKN011 BKN013 OVC016 09/08 Q1019
  • 221850Z 23019KT 9000 -RA BKN015 OVC023 09/07 Q1019
  • 221820Z 22021KT 9999 BKN017 OVC027 09/07 Q1019
  • 221750Z 23017G29KT 9999 -RA BKN018 09/07 Q1019
  • 221720Z 23018G28KT 9999 -SHRA OVC018 09/06 Q1018

TAF TAF EDLW
Valid from the 22 at 18:00 until the 23 at 18:00 UTC


221700Z 2218/2318 24020G35KT 9999 BKN020
TEMPO 2218/2220 BKN014
BECMG 2219/2222 25015G25KT
BECMG 2302/2305 RA BKN012
BECMG 2307/2310 25020G40KT
TEMPO 2309/2314 26025G45KT 3000 +RA BKN007
BECMG 2314/2317 28015G25KT NSW BKN015



MET'MAP, your aeronautical weather chart ! - Copyright ORBIFLY December 2007 - Disclaimer

ORBIFLY MET'MAP TEAM :

Programming & Development : Alexandra Zaïnal
Concept & original design : Baudouin d'Aumeries
Assistance for programming : Marc-Olivier Méhu
Technical & hardware support : Manuel Goepfert

Contact : metmap@orbifly.com




SOURCES & CREDITS :

   NOAA